sensor_id;sensor_type;location;lat;lon;timestamp;P1;durP1;ratioP1;P2;durP2;ratioP2
42662;SDS011;44330;51.360;6.686;2023-05-23T00:01:04;18.90;;;12.15;;
42662;SDS011;44330;51.360;6.686;2023-05-23T00:05:59;16.77;;;10.70;;
42662;SDS011;44330;51.360;6.686;2023-05-23T00:08:25;16.85;;;10.77;;
42662;SDS011;44330;51.360;6.686;2023-05-23T00:10:51;12.32;;;9.57;;
42662;SDS011;44330;51.360;6.686;2023-05-23T00:13:16;13.57;;;9.73;;
42662;SDS011;44330;51.360;6.686;2023-05-23T00:15:42;16.20;;;10.10;;
42662;SDS011;44330;51.360;6.686;2023-05-23T00:18:10;15.27;;;10.13;;
42662;SDS011;44330;51.360;6.686;2023-05-23T00:20:36;10.98;;;8.40;;
42662;SDS011;44330;51.360;6.686;2023-05-23T00:23:08;16.98;;;9.15;;
42662;SDS011;44330;51.360;6.686;2023-05-23T00:25:34;14.30;;;7.55;;
42662;SDS011;44330;51.360;6.686;2023-05-23T00:28:01;10.88;;;6.97;;
42662;SDS011;44330;51.360;6.686;2023-05-23T00:30:28;12.20;;;6.43;;
42662;SDS011;44330;51.360;6.686;2023-05-23T00:32:55;9.80;;;5.50;;
42662;SDS011;44330;51.360;6.686;2023-05-23T00:35:21;6.93;;;5.10;;
42662;SDS011;44330;51.360;6.686;2023-05-23T00:37:47;8.95;;;5.18;;
42662;SDS011;44330;51.360;6.686;2023-05-23T00:40:17;9.57;;;5.13;;
42662;SDS011;44330;51.360;6.686;2023-05-23T00:42:43;8.75;;;4.68;;
42662;SDS011;44330;51.360;6.686;2023-05-23T00:45:09;6.38;;;4.65;;
42662;SDS011;44330;51.360;6.686;2023-05-23T00:47:36;10.20;;;5.40;;
42662;SDS011;44330;51.360;6.686;2023-05-23T00:50:10;8.50;;;4.75;;
42662;SDS011;44330;51.360;6.686;2023-05-23T00:52:37;9.30;;;4.97;;
42662;SDS011;44330;51.360;6.686;2023-05-23T00:55:03;9.32;;;4.88;;
42662;SDS011;44330;51.360;6.686;2023-05-23T00:57:30;6.85;;;4.50;;
42662;SDS011;44330;51.360;6.686;2023-05-23T00:59:58;8.40;;;5.40;;
42662;SDS011;44330;51.360;6.686;2023-05-23T01:02:24;10.25;;;4.97;;
42662;SDS011;44330;51.360;6.686;2023-05-23T01:04:51;6.10;;;4.75;;
42662;SDS011;44330;51.360;6.686;2023-05-23T01:07:19;7.03;;;4.70;;
42662;SDS011;44330;51.360;6.686;2023-05-23T01:09:45;6.45;;;4.93;;
42662;SDS011;44330;51.360;6.686;2023-05-23T01:14:39;8.32;;;5.15;;
42662;SDS011;44330;51.360;6.686;2023-05-23T01:17:10;8.48;;;5.38;;
42662;SDS011;44330;51.360;6.686;2023-05-23T01:19:53;7.32;;;5.68;;
42662;SDS011;44330;51.360;6.686;2023-05-23T01:22:29;9.40;;;5.90;;
42662;SDS011;44330;51.360;6.686;2023-05-23T01:30:27;9.98;;;5.63;;
42662;SDS011;44330;51.360;6.686;2023-05-23T01:32:57;10.48;;;5.60;;
42662;SDS011;44330;51.360;6.686;2023-05-23T01:35:25;9.75;;;5.78;;
42662;SDS011;44330;51.360;6.686;2023-05-23T01:37:52;8.13;;;5.80;;
42662;SDS011;44330;51.360;6.686;2023-05-23T01:40:21;14.38;;;6.22;;
42662;SDS011;44330;51.360;6.686;2023-05-23T01:42:57;8.43;;;5.72;;
42662;SDS011;44330;51.360;6.686;2023-05-23T01:45:24;8.55;;;5.88;;
42662;SDS011;44330;51.360;6.686;2023-05-23T01:47:52;10.98;;;6.18;;
42662;SDS011;44330;51.360;6.686;2023-05-23T01:50:18;9.52;;;5.45;;
42662;SDS011;44330;51.360;6.686;2023-05-23T01:52:47;9.65;;;5.80;;
42662;SDS011;44330;51.360;6.686;2023-05-23T01:55:15;11.10;;;6.20;;
42662;SDS011;44330;51.360;6.686;2023-05-23T01:57:46;8.88;;;5.68;;
42662;SDS011;44330;51.360;6.686;2023-05-23T02:00:14;11.03;;;6.13;;
42662;SDS011;44330;51.360;6.686;2023-05-23T02:02:40;15.93;;;6.57;;
42662;SDS011;44330;51.360;6.686;2023-05-23T02:05:06;17.15;;;6.20;;
42662;SDS011;44330;51.360;6.686;2023-05-23T02:07:33;8.60;;;5.82;;
42662;SDS011;44330;51.360;6.686;2023-05-23T02:09:59;8.95;;;5.72;;
42662;SDS011;44330;51.360;6.686;2023-05-23T02:12:24;11.90;;;5.45;;
42662;SDS011;44330;51.360;6.686;2023-05-23T02:14:50;10.93;;;6.15;;
42662;SDS011;44330;51.360;6.686;2023-05-23T02:17:16;9.35;;;5.50;;
42662;SDS011;44330;51.360;6.686;2023-05-23T02:19:42;10.05;;;5.93;;
42662;SDS011;44330;51.360;6.686;2023-05-23T02:22:08;10.60;;;5.63;;
42662;SDS011;44330;51.360;6.686;2023-05-23T02:24:34;8.13;;;5.70;;
42662;SDS011;44330;51.360;6.686;2023-05-23T02:26:59;11.07;;;5.40;;
42662;SDS011;44330;51.360;6.686;2023-05-23T02:29:25;8.05;;;5.63;;
42662;SDS011;44330;51.360;6.686;2023-05-23T02:31:50;8.15;;;5.05;;
42662;SDS011;44330;51.360;6.686;2023-05-23T02:34:16;9.88;;;5.70;;
42662;SDS011;44330;51.360;6.686;2023-05-23T02:36:41;11.20;;;6.75;;
42662;SDS011;44330;51.360;6.686;2023-05-23T02:39:07;10.00;;;6.63;;
42662;SDS011;44330;51.360;6.686;2023-05-23T02:41:33;13.25;;;6.78;;
42662;SDS011;44330;51.360;6.686;2023-05-23T02:43:58;14.27;;;7.15;;
42662;SDS011;44330;51.360;6.686;2023-05-23T02:46:24;13.20;;;7.60;;
42662;SDS011;44330;51.360;6.686;2023-05-23T02:48:50;17.60;;;8.63;;
42662;SDS011;44330;51.360;6.686;2023-05-23T02:51:16;12.00;;;7.70;;
42662;SDS011;44330;51.360;6.686;2023-05-23T02:53:41;14.93;;;8.00;;
42662;SDS011;44330;51.360;6.686;2023-05-23T02:56:07;13.35;;;7.82;;
42662;SDS011;44330;51.360;6.686;2023-05-23T02:58:33;13.43;;;8.20;;
42662;SDS011;44330;51.360;6.686;2023-05-23T03:01:02;18.70;;;8.35;;
42662;SDS011;44330;51.360;6.686;2023-05-23T03:03:28;19.73;;;8.30;;
42662;SDS011;44330;51.360;6.686;2023-05-23T03:05:55;20.50;;;8.85;;
42662;SDS011;44330;51.360;6.686;2023-05-23T03:08:24;16.45;;;8.48;;
42662;SDS011;44330;51.360;6.686;2023-05-23T03:10:49;18.50;;;8.23;;
42662;SDS011;44330;51.360;6.686;2023-05-23T03:13:16;14.15;;;7.40;;
42662;SDS011;44330;51.360;6.686;2023-05-23T03:15:42;17.67;;;7.32;;
42662;SDS011;44330;51.360;6.686;2023-05-23T03:18:08;11.32;;;6.50;;
42662;SDS011;44330;51.360;6.686;2023-05-23T03:20:33;16.35;;;7.22;;
42662;SDS011;44330;51.360;6.686;2023-05-23T03:22:59;14.55;;;6.72;;
42662;SDS011;44330;51.360;6.686;2023-05-23T03:25:24;17.15;;;6.60;;
42662;SDS011;44330;51.360;6.686;2023-05-23T03:27:50;15.05;;;6.18;;
42662;SDS011;44330;51.360;6.686;2023-05-23T03:30:16;12.88;;;6.07;;
42662;SDS011;44330;51.360;6.686;2023-05-23T03:32:42;10.13;;;6.07;;
42662;SDS011;44330;51.360;6.686;2023-05-23T03:35:07;10.20;;;5.60;;
42662;SDS011;44330;51.360;6.686;2023-05-23T03:37:33;10.48;;;5.85;;
42662;SDS011;44330;51.360;6.686;2023-05-23T03:39:59;15.05;;;6.60;;
42662;SDS011;44330;51.360;6.686;2023-05-23T03:42:25;12.15;;;6.80;;
42662;SDS011;44330;51.360;6.686;2023-05-23T03:44:51;14.48;;;5.57;;
42662;SDS011;44330;51.360;6.686;2023-05-23T03:47:17;13.15;;;6.50;;
42662;SDS011;44330;51.360;6.686;2023-05-23T03:49:43;15.68;;;7.55;;
42662;SDS011;44330;51.360;6.686;2023-05-23T03:52:09;16.00;;;6.68;;
42662;SDS011;44330;51.360;6.686;2023-05-23T03:54:35;14.50;;;6.97;;
42662;SDS011;44330;51.360;6.686;2023-05-23T03:57:01;13.98;;;7.43;;
42662;SDS011;44330;51.360;6.686;2023-05-23T03:59:26;19.60;;;7.70;;
42662;SDS011;44330;51.360;6.686;2023-05-23T04:01:52;14.02;;;7.90;;
42662;SDS011;44330;51.360;6.686;2023-05-23T04:04:18;17.88;;;8.13;;
42662;SDS011;44330;51.360;6.686;2023-05-23T04:06:45;16.65;;;8.10;;
42662;SDS011;44330;51.360;6.686;2023-05-23T04:09:11;17.30;;;8.20;;
42662;SDS011;44330;51.360;6.686;2023-05-23T04:11:38;19.13;;;8.13;;
42662;SDS011;44330;51.360;6.686;2023-05-23T04:14:03;17.15;;;7.75;;
42662;SDS011;44330;51.360;6.686;2023-05-23T04:16:29;12.65;;;8.30;;
42662;SDS011;44330;51.360;6.686;2023-05-23T04:18:57;16.27;;;8.40;;
42662;SDS011;44330;51.360;6.686;2023-05-23T04:21:23;14.93;;;8.10;;
42662;SDS011;44330;51.360;6.686;2023-05-23T04:23:49;14.30;;;6.93;;
42662;SDS011;44330;51.360;6.686;2023-05-23T04:26:14;15.77;;;7.32;;
42662;SDS011;44330;51.360;6.686;2023-05-23T04:28:40;12.77;;;7.10;;
42662;SDS011;44330;51.360;6.686;2023-05-23T04:31:10;16.83;;;7.75;;
42662;SDS011;44330;51.360;6.686;2023-05-23T04:33:36;14.43;;;7.07;;
42662;SDS011;44330;51.360;6.686;2023-05-23T04:36:02;13.63;;;7.47;;
42662;SDS011;44330;51.360;6.686;2023-05-23T04:38:28;14.68;;;7.63;;
42662;SDS011;44330;51.360;6.686;2023-05-23T04:40:53;12.43;;;7.97;;
42662;SDS011;44330;51.360;6.686;2023-05-23T04:43:19;12.32;;;7.50;;
42662;SDS011;44330;51.360;6.686;2023-05-23T04:45:46;16.98;;;7.72;;
42662;SDS011;44330;51.360;6.686;2023-05-23T04:48:13;18.13;;;8.90;;
42662;SDS011;44330;51.360;6.686;2023-05-23T04:50:41;16.10;;;8.25;;
42662;SDS011;44330;51.360;6.686;2023-05-23T04:53:07;16.88;;;8.15;;
42662;SDS011;44330;51.360;6.686;2023-05-23T04:55:33;12.27;;;7.82;;
42662;SDS011;44330;51.360;6.686;2023-05-23T04:57:59;14.30;;;8.57;;
42662;SDS011;44330;51.360;6.686;2023-05-23T05:00:25;17.52;;;9.13;;
42662;SDS011;44330;51.360;6.686;2023-05-23T05:02:51;19.63;;;9.50;;
42662;SDS011;44330;51.360;6.686;2023-05-23T05:05:16;16.52;;;8.50;;
42662;SDS011;44330;51.360;6.686;2023-05-23T05:07:42;14.93;;;8.77;;
42662;SDS011;44330;51.360;6.686;2023-05-23T05:10:08;17.20;;;9.18;;
42662;SDS011;44330;51.360;6.686;2023-05-23T05:12:41;16.13;;;8.85;;
42662;SDS011;44330;51.360;6.686;2023-05-23T05:15:08;15.85;;;9.07;;
42662;SDS011;44330;51.360;6.686;2023-05-23T05:17:34;13.20;;;8.75;;
42662;SDS011;44330;51.360;6.686;2023-05-23T05:20:01;18.10;;;8.98;;
42662;SDS011;44330;51.360;6.686;2023-05-23T05:22:32;15.68;;;8.73;;
42662;SDS011;44330;51.360;6.686;2023-05-23T05:25:07;18.98;;;8.98;;
42662;SDS011;44330;51.360;6.686;2023-05-23T05:27:38;20.17;;;8.95;;
42662;SDS011;44330;51.360;6.686;2023-05-23T05:30:09;18.13;;;9.63;;
42662;SDS011;44330;51.360;6.686;2023-05-23T05:32:35;14.05;;;8.30;;
42662;SDS011;44330;51.360;6.686;2023-05-23T05:35:02;16.05;;;9.35;;
42662;SDS011;44330;51.360;6.686;2023-05-23T05:37:28;16.90;;;8.27;;
42662;SDS011;44330;51.360;6.686;2023-05-23T05:39:54;19.85;;;9.75;;
42662;SDS011;44330;51.360;6.686;2023-05-23T05:42:21;14.23;;;9.20;;
42662;SDS011;44330;51.360;6.686;2023-05-23T05:44:47;18.88;;;8.95;;
42662;SDS011;44330;51.360;6.686;2023-05-23T05:47:13;15.80;;;8.38;;
42662;SDS011;44330;51.360;6.686;2023-05-23T05:49:39;15.88;;;8.10;;
42662;SDS011;44330;51.360;6.686;2023-05-23T05:52:07;13.82;;;7.78;;
42662;SDS011;44330;51.360;6.686;2023-05-23T05:54:33;13.50;;;7.20;;
42662;SDS011;44330;51.360;6.686;2023-05-23T05:56:58;14.20;;;8.18;;
42662;SDS011;44330;51.360;6.686;2023-05-23T05:59:24;15.70;;;7.22;;
42662;SDS011;44330;51.360;6.686;2023-05-23T06:01:50;11.65;;;6.50;;
42662;SDS011;44330;51.360;6.686;2023-05-23T06:04:16;12.98;;;6.78;;
42662;SDS011;44330;51.360;6.686;2023-05-23T06:06:42;12.77;;;6.13;;
42662;SDS011;44330;51.360;6.686;2023-05-23T06:09:08;12.15;;;6.40;;
42662;SDS011;44330;51.360;6.686;2023-05-23T06:11:34;12.20;;;6.80;;
42662;SDS011;44330;51.360;6.686;2023-05-23T06:14:03;15.10;;;7.32;;
42662;SDS011;44330;51.360;6.686;2023-05-23T06:16:29;14.38;;;7.18;;
42662;SDS011;44330;51.360;6.686;2023-05-23T06:18:54;14.63;;;6.53;;
42662;SDS011;44330;51.360;6.686;2023-05-23T06:21:20;14.00;;;7.25;;
42662;SDS011;44330;51.360;6.686;2023-05-23T06:23:46;12.18;;;7.32;;
42662;SDS011;44330;51.360;6.686;2023-05-23T06:26:11;12.15;;;7.45;;
42662;SDS011;44330;51.360;6.686;2023-05-23T06:28:37;12.70;;;7.63;;
42662;SDS011;44330;51.360;6.686;2023-05-23T06:31:06;11.77;;;6.97;;
42662;SDS011;44330;51.360;6.686;2023-05-23T06:33:33;12.65;;;7.13;;
42662;SDS011;44330;51.360;6.686;2023-05-23T06:35:59;14.85;;;7.40;;
42662;SDS011;44330;51.360;6.686;2023-05-23T06:38:25;13.95;;;7.30;;
42662;SDS011;44330;51.360;6.686;2023-05-23T06:40:53;12.80;;;6.75;;
42662;SDS011;44330;51.360;6.686;2023-05-23T06:43:19;11.18;;;6.88;;
42662;SDS011;44330;51.360;6.686;2023-05-23T06:45:45;16.50;;;6.28;;
42662;SDS011;44330;51.360;6.686;2023-05-23T06:50:39;15.20;;;7.25;;
42662;SDS011;44330;51.360;6.686;2023-05-23T06:53:05;15.95;;;7.10;;
42662;SDS011;44330;51.360;6.686;2023-05-23T06:55:31;14.55;;;6.97;;
42662;SDS011;44330;51.360;6.686;2023-05-23T06:57:58;15.30;;;7.00;;
42662;SDS011;44330;51.360;6.686;2023-05-23T07:00:24;11.13;;;6.05;;
42662;SDS011;44330;51.360;6.686;2023-05-23T07:02:50;11.07;;;6.30;;
42662;SDS011;44330;51.360;6.686;2023-05-23T07:05:15;13.13;;;6.75;;
42662;SDS011;44330;51.360;6.686;2023-05-23T07:07:41;13.25;;;6.95;;
42662;SDS011;44330;51.360;6.686;2023-05-23T07:10:07;16.95;;;7.32;;
42662;SDS011;44330;51.360;6.686;2023-05-23T07:12:33;16.77;;;6.63;;
42662;SDS011;44330;51.360;6.686;2023-05-23T07:14:59;13.90;;;7.25;;
42662;SDS011;44330;51.360;6.686;2023-05-23T07:17:24;13.88;;;7.05;;
42662;SDS011;44330;51.360;6.686;2023-05-23T07:19:56;14.02;;;6.90;;
42662;SDS011;44330;51.360;6.686;2023-05-23T07:22:29;14.10;;;7.40;;
42662;SDS011;44330;51.360;6.686;2023-05-23T07:24:55;16.65;;;7.25;;
42662;SDS011;44330;51.360;6.686;2023-05-23T07:33:57;14.95;;;7.32;;
42662;SDS011;44330;51.360;6.686;2023-05-23T07:36:25;21.20;;;6.90;;
42662;SDS011;44330;51.360;6.686;2023-05-23T07:38:56;20.55;;;7.43;;
42662;SDS011;44330;51.360;6.686;2023-05-23T07:41:22;14.18;;;6.57;;
42662;SDS011;44330;51.360;6.686;2023-05-23T07:43:57;16.00;;;7.20;;
42662;SDS011;44330;51.360;6.686;2023-05-23T07:46:25;19.17;;;6.00;;
42662;SDS011;44330;51.360;6.686;2023-05-23T07:48:51;20.17;;;8.00;;
42662;SDS011;44330;51.360;6.686;2023-05-23T07:51:16;18.73;;;7.70;;
42662;SDS011;44330;51.360;6.686;2023-05-23T07:53:45;21.65;;;8.15;;
42662;SDS011;44330;51.360;6.686;2023-05-23T07:56:11;20.05;;;8.25;;
42662;SDS011;44330;51.360;6.686;2023-05-23T07:58:36;19.58;;;7.65;;
42662;SDS011;44330;51.360;6.686;2023-05-23T08:01:02;19.80;;;7.68;;
42662;SDS011;44330;51.360;6.686;2023-05-23T08:03:30;20.27;;;8.32;;
42662;SDS011;44330;51.360;6.686;2023-05-23T08:06:08;20.02;;;7.05;;
42662;SDS011;44330;51.360;6.686;2023-05-23T08:08:34;19.90;;;8.00;;
42662;SDS011;44330;51.360;6.686;2023-05-23T08:11:00;23.10;;;7.78;;
42662;SDS011;44330;51.360;6.686;2023-05-23T08:13:25;19.98;;;8.00;;
42662;SDS011;44330;51.360;6.686;2023-05-23T08:15:51;18.70;;;7.57;;
42662;SDS011;44330;51.360;6.686;2023-05-23T08:18:17;21.02;;;7.35;;
42662;SDS011;44330;51.360;6.686;2023-05-23T08:20:43;17.52;;;7.05;;
42662;SDS011;44330;51.360;6.686;2023-05-23T08:23:09;17.77;;;7.72;;
42662;SDS011;44330;51.360;6.686;2023-05-23T08:25:36;27.00;;;8.40;;
42662;SDS011;44330;51.360;6.686;2023-05-23T08:28:02;26.35;;;8.65;;
42662;SDS011;44330;51.360;6.686;2023-05-23T08:30:28;19.75;;;8.10;;
42662;SDS011;44330;51.360;6.686;2023-05-23T08:32:54;23.20;;;8.02;;
42662;SDS011;44330;51.360;6.686;2023-05-23T08:35:21;27.13;;;7.63;;
42662;SDS011;44330;51.360;6.686;2023-05-23T08:37:47;16.67;;;7.43;;
42662;SDS011;44330;51.360;6.686;2023-05-23T08:40:17;18.08;;;7.30;;
42662;SDS011;44330;51.360;6.686;2023-05-23T08:42:47;17.33;;;7.25;;
42662;SDS011;44330;51.360;6.686;2023-05-23T08:45:13;19.38;;;7.75;;
42662;SDS011;44330;51.360;6.686;2023-05-23T08:47:41;18.63;;;7.90;;
42662;SDS011;44330;51.360;6.686;2023-05-23T08:50:14;21.38;;;7.68;;
42662;SDS011;44330;51.360;6.686;2023-05-23T08:52:53;21.30;;;7.65;;
42662;SDS011;44330;51.360;6.686;2023-05-23T08:55:21;22.65;;;7.55;;
42662;SDS011;44330;51.360;6.686;2023-05-23T08:57:51;20.23;;;7.93;;
42662;SDS011;44330;51.360;6.686;2023-05-23T09:00:17;44.35;;;8.38;;
42662;SDS011;44330;51.360;6.686;2023-05-23T09:02:44;22.60;;;6.80;;
42662;SDS011;44330;51.360;6.686;2023-05-23T09:05:10;21.75;;;7.22;;
42662;SDS011;44330;51.360;6.686;2023-05-23T09:07:37;15.18;;;6.68;;
42662;SDS011;44330;51.360;6.686;2023-05-23T09:10:04;14.45;;;6.30;;
42662;SDS011;44330;51.360;6.686;2023-05-23T09:12:31;16.55;;;7.05;;
42662;SDS011;44330;51.360;6.686;2023-05-23T09:14:57;18.90;;;6.65;;
42662;SDS011;44330;51.360;6.686;2023-05-23T09:17:23;16.85;;;6.40;;
42662;SDS011;44330;51.360;6.686;2023-05-23T09:19:48;16.73;;;6.07;;
42662;SDS011;44330;51.360;6.686;2023-05-23T09:22:15;15.32;;;6.30;;
42662;SDS011;44330;51.360;6.686;2023-05-23T09:24:40;19.50;;;6.95;;
42662;SDS011;44330;51.360;6.686;2023-05-23T09:27:07;16.38;;;5.97;;
42662;SDS011;44330;51.360;6.686;2023-05-23T09:29:39;13.23;;;5.53;;
42662;SDS011;44330;51.360;6.686;2023-05-23T09:32:17;18.73;;;6.25;;
42662;SDS011;44330;51.360;6.686;2023-05-23T09:34:59;14.10;;;6.20;;
42662;SDS011;44330;51.360;6.686;2023-05-23T09:37:31;18.23;;;7.18;;
42662;SDS011;44330;51.360;6.686;2023-05-23T09:40:12;17.38;;;6.20;;
42662;SDS011;44330;51.360;6.686;2023-05-23T09:42:42;17.60;;;5.75;;
42662;SDS011;44330;51.360;6.686;2023-05-23T09:45:12;17.52;;;5.88;;
42662;SDS011;44330;51.360;6.686;2023-05-23T09:47:38;16.65;;;6.38;;
42662;SDS011;44330;51.360;6.686;2023-05-23T09:50:12;16.95;;;6.97;;
42662;SDS011;44330;51.360;6.686;2023-05-23T09:52:38;15.98;;;6.55;;
42662;SDS011;44330;51.360;6.686;2023-05-23T09:55:04;18.23;;;6.30;;
42662;SDS011;44330;51.360;6.686;2023-05-23T09:57:30;19.55;;;6.35;;
42662;SDS011;44330;51.360;6.686;2023-05-23T10:00:05;14.15;;;6.35;;
42662;SDS011;44330;51.360;6.686;2023-05-23T10:05:11;16.90;;;7.07;;
42662;SDS011;44330;51.360;6.686;2023-05-23T10:07:51;17.02;;;6.00;;
42662;SDS011;44330;51.360;6.686;2023-05-23T10:10:17;13.43;;;6.05;;
42662;SDS011;44330;51.360;6.686;2023-05-23T10:12:48;17.25;;;5.63;;
42662;SDS011;44330;51.360;6.686;2023-05-23T10:15:17;13.00;;;6.25;;
42662;SDS011;44330;51.360;6.686;2023-05-23T10:17:54;12.23;;;5.68;;
42662;SDS011;44330;51.360;6.686;2023-05-23T10:20:24;19.63;;;6.60;;
42662;SDS011;44330;51.360;6.686;2023-05-23T10:22:52;13.05;;;6.47;;
42662;SDS011;44330;51.360;6.686;2023-05-23T10:25:18;13.27;;;6.07;;
42662;SDS011;44330;51.360;6.686;2023-05-23T10:27:44;17.10;;;6.88;;
42662;SDS011;44330;51.360;6.686;2023-05-23T10:32:39;15.75;;;5.82;;
42662;SDS011;44330;51.360;6.686;2023-05-23T10:40:22;15.10;;;5.70;;
42662;SDS011;44330;51.360;6.686;2023-05-23T10:45:51;11.00;;;5.60;;
42662;SDS011;44330;51.360;6.686;2023-05-23T10:48:35;15.07;;;4.80;;
42662;SDS011;44330;51.360;6.686;2023-05-23T10:51:06;13.82;;;5.05;;
42662;SDS011;44330;51.360;6.686;2023-05-23T10:53:40;12.50;;;5.55;;
42662;SDS011;44330;51.360;6.686;2023-05-23T10:56:07;15.55;;;4.93;;
42662;SDS011;44330;51.360;6.686;2023-05-23T10:58:34;18.45;;;5.05;;
42662;SDS011;44330;51.360;6.686;2023-05-23T11:01:06;17.85;;;4.47;;
42662;SDS011;44330;51.360;6.686;2023-05-23T11:03:35;13.40;;;4.75;;
42662;SDS011;44330;51.360;6.686;2023-05-23T11:06:36;10.77;;;4.80;;
42662;SDS011;44330;51.360;6.686;2023-05-23T11:12:06;11.55;;;3.92;;
42662;SDS011;44330;51.360;6.686;2023-05-23T11:19:37;7.10;;;3.38;;
42662;SDS011;44330;51.360;6.686;2023-05-23T11:22:09;9.30;;;4.07;;
42662;SDS011;44330;51.360;6.686;2023-05-23T11:24:54;8.35;;;3.67;;
42662;SDS011;44330;51.360;6.686;2023-05-23T11:30:03;11.95;;;4.10;;
42662;SDS011;44330;51.360;6.686;2023-05-23T11:32:38;13.80;;;4.00;;
42662;SDS011;44330;51.360;6.686;2023-05-23T11:35:07;8.35;;;3.70;;
42662;SDS011;44330;51.360;6.686;2023-05-23T11:37:34;11.60;;;3.80;;
42662;SDS011;44330;51.360;6.686;2023-05-23T11:43:01;14.65;;;3.40;;
42662;SDS011;44330;51.360;6.686;2023-05-23T11:45:30;16.75;;;3.45;;
42662;SDS011;44330;51.360;6.686;2023-05-23T11:47:56;9.75;;;3.13;;
42662;SDS011;44330;51.360;6.686;2023-05-23T11:50:21;11.63;;;3.50;;
42662;SDS011;44330;51.360;6.686;2023-05-23T11:52:48;13.77;;;3.67;;
42662;SDS011;44330;51.360;6.686;2023-05-23T11:55:20;12.40;;;3.17;;
42662;SDS011;44330;51.360;6.686;2023-05-23T11:57:47;13.23;;;3.95;;
42662;SDS011;44330;51.360;6.686;2023-05-23T12:00:13;16.95;;;3.78;;
42662;SDS011;44330;51.360;6.686;2023-05-23T12:02:40;12.88;;;3.80;;
42662;SDS011;44330;51.360;6.686;2023-05-23T12:05:07;12.73;;;3.70;;
42662;SDS011;44330;51.360;6.686;2023-05-23T12:07:47;15.00;;;4.32;;
42662;SDS011;44330;51.360;6.686;2023-05-23T12:10:14;12.48;;;3.50;;
42662;SDS011;44330;51.360;6.686;2023-05-23T12:12:46;12.18;;;4.10;;
42662;SDS011;44330;51.360;6.686;2023-05-23T12:15:12;14.57;;;5.18;;
42662;SDS011;44330;51.360;6.686;2023-05-23T12:17:38;11.82;;;4.05;;
42662;SDS011;44330;51.360;6.686;2023-05-23T12:20:07;15.75;;;4.00;;
42662;SDS011;44330;51.360;6.686;2023-05-23T12:22:35;16.70;;;4.13;;
42662;SDS011;44330;51.360;6.686;2023-05-23T12:25:01;13.93;;;3.95;;
42662;SDS011;44330;51.360;6.686;2023-05-23T12:27:32;14.60;;;3.50;;
42662;SDS011;44330;51.360;6.686;2023-05-23T12:30:06;10.88;;;3.53;;
42662;SDS011;44330;51.360;6.686;2023-05-23T12:32:33;20.10;;;3.67;;
42662;SDS011;44330;51.360;6.686;2023-05-23T12:35:03;13.93;;;3.65;;
42662;SDS011;44330;51.360;6.686;2023-05-23T12:37:29;12.43;;;3.58;;
42662;SDS011;44330;51.360;6.686;2023-05-23T12:39:55;13.35;;;3.53;;
42662;SDS011;44330;51.360;6.686;2023-05-23T12:42:21;13.05;;;3.63;;
42662;SDS011;44330;51.360;6.686;2023-05-23T12:44:49;11.55;;;3.17;;
42662;SDS011;44330;51.360;6.686;2023-05-23T12:47:15;16.88;;;4.28;;
42662;SDS011;44330;51.360;6.686;2023-05-23T12:49:41;11.38;;;3.20;;
42662;SDS011;44330;51.360;6.686;2023-05-23T12:52:08;10.88;;;3.65;;
42662;SDS011;44330;51.360;6.686;2023-05-23T12:54:34;11.82;;;3.63;;
42662;SDS011;44330;51.360;6.686;2023-05-23T12:57:00;12.55;;;3.45;;
42662;SDS011;44330;51.360;6.686;2023-05-23T12:59:25;10.70;;;3.70;;
42662;SDS011;44330;51.360;6.686;2023-05-23T13:01:51;11.02;;;3.47;;
42662;SDS011;44330;51.360;6.686;2023-05-23T13:04:16;14.93;;;4.13;;
42662;SDS011;44330;51.360;6.686;2023-05-23T13:06:42;13.27;;;3.55;;
42662;SDS011;44330;51.360;6.686;2023-05-23T13:09:08;16.10;;;3.42;;
42662;SDS011;44330;51.360;6.686;2023-05-23T13:11:34;16.38;;;3.67;;
42662;SDS011;44330;51.360;6.686;2023-05-23T13:13:59;12.65;;;4.05;;
42662;SDS011;44330;51.360;6.686;2023-05-23T13:16:25;11.80;;;3.58;;
42662;SDS011;44330;51.360;6.686;2023-05-23T13:18:54;15.05;;;3.88;;
42662;SDS011;44330;51.360;6.686;2023-05-23T13:21:22;10.75;;;3.55;;
42662;SDS011;44330;51.360;6.686;2023-05-23T13:23:47;12.30;;;3.35;;
42662;SDS011;44330;51.360;6.686;2023-05-23T13:26:14;16.50;;;3.85;;
42662;SDS011;44330;51.360;6.686;2023-05-23T13:28:40;16.05;;;4.35;;
42662;SDS011;44330;51.360;6.686;2023-05-23T13:31:05;13.50;;;4.13;;
42662;SDS011;44330;51.360;6.686;2023-05-23T13:33:31;11.10;;;3.35;;
42662;SDS011;44330;51.360;6.686;2023-05-23T13:35:57;13.30;;;4.03;;
42662;SDS011;44330;51.360;6.686;2023-05-23T13:38:23;14.40;;;3.35;;
42662;SDS011;44330;51.360;6.686;2023-05-23T13:40:48;14.80;;;4.07;;
42662;SDS011;44330;51.360;6.686;2023-05-23T13:43:16;13.05;;;3.63;;
42662;SDS011;44330;51.360;6.686;2023-05-23T13:45:42;14.25;;;4.18;;
42662;SDS011;44330;51.360;6.686;2023-05-23T13:48:08;11.25;;;3.63;;
42662;SDS011;44330;51.360;6.686;2023-05-23T13:50:33;18.42;;;3.58;;
42662;SDS011;44330;51.360;6.686;2023-05-23T13:52:59;16.45;;;4.55;;
42662;SDS011;44330;51.360;6.686;2023-05-23T13:55:25;11.93;;;3.42;;
42662;SDS011;44330;51.360;6.686;2023-05-23T13:57:51;13.75;;;3.42;;
42662;SDS011;44330;51.360;6.686;2023-05-23T14:00:17;13.18;;;3.60;;
42662;SDS011;44330;51.360;6.686;2023-05-23T14:02:42;13.80;;;3.83;;
42662;SDS011;44330;51.360;6.686;2023-05-23T14:05:11;18.35;;;4.03;;
42662;SDS011;44330;51.360;6.686;2023-05-23T14:07:39;11.63;;;3.15;;
42662;SDS011;44330;51.360;6.686;2023-05-23T14:13:28;10.30;;;3.40;;
42662;SDS011;44330;51.360;6.686;2023-05-23T14:15:53;15.82;;;3.70;;
42662;SDS011;44330;51.360;6.686;2023-05-23T14:18:19;11.07;;;3.35;;
42662;SDS011;44330;51.360;6.686;2023-05-23T14:20:45;17.02;;;4.32;;
42662;SDS011;44330;51.360;6.686;2023-05-23T14:23:10;9.93;;;2.67;;
42662;SDS011;44330;51.360;6.686;2023-05-23T14:25:36;10.27;;;3.28;;
42662;SDS011;44330;51.360;6.686;2023-05-23T14:28:01;12.07;;;3.72;;
42662;SDS011;44330;51.360;6.686;2023-05-23T14:30:27;12.82;;;2.95;;
42662;SDS011;44330;51.360;6.686;2023-05-23T14:32:53;14.02;;;3.67;;
42662;SDS011;44330;51.360;6.686;2023-05-23T14:35:18;11.38;;;3.10;;
42662;SDS011;44330;51.360;6.686;2023-05-23T14:37:46;9.80;;;2.65;;
42662;SDS011;44330;51.360;6.686;2023-05-23T14:40:12;13.52;;;3.22;;
42662;SDS011;44330;51.360;6.686;2023-05-23T14:42:38;13.63;;;2.70;;
42662;SDS011;44330;51.360;6.686;2023-05-23T14:45:03;12.45;;;3.55;;
42662;SDS011;44330;51.360;6.686;2023-05-23T14:47:30;13.93;;;3.83;;
42662;SDS011;44330;51.360;6.686;2023-05-23T14:49:56;12.98;;;3.65;;
42662;SDS011;44330;51.360;6.686;2023-05-23T14:52:22;7.95;;;2.72;;
42662;SDS011;44330;51.360;6.686;2023-05-23T14:54:48;16.08;;;3.08;;
42662;SDS011;44330;51.360;6.686;2023-05-23T14:57:13;13.82;;;3.40;;
42662;SDS011;44330;51.360;6.686;2023-05-23T14:59:39;14.35;;;3.05;;
42662;SDS011;44330;51.360;6.686;2023-05-23T15:02:05;20.25;;;4.18;;
42662;SDS011;44330;51.360;6.686;2023-05-23T15:04:32;14.73;;;3.58;;
42662;SDS011;44330;51.360;6.686;2023-05-23T15:06:57;13.05;;;3.08;;
42662;SDS011;44330;51.360;6.686;2023-05-23T15:09:23;14.27;;;3.75;;
42662;SDS011;44330;51.360;6.686;2023-05-23T15:11:48;11.63;;;3.25;;
42662;SDS011;44330;51.360;6.686;2023-05-23T15:14:17;13.73;;;3.55;;
42662;SDS011;44330;51.360;6.686;2023-05-23T15:16:43;12.30;;;3.03;;
42662;SDS011;44330;51.360;6.686;2023-05-23T15:19:09;11.00;;;3.35;;
42662;SDS011;44330;51.360;6.686;2023-05-23T15:21:35;13.48;;;2.58;;
42662;SDS011;44330;51.360;6.686;2023-05-23T15:24:01;12.43;;;3.35;;
42662;SDS011;44330;51.360;6.686;2023-05-23T15:26:27;16.60;;;3.25;;